x

Central Aleutians 230nm Sw Dutch Harbor (46072) Wave Buoy

2:50pm - Sun 26th Apr 2015 All times are UTC.

  • Sig Wave height 6.6ft
  • Peak Period 8s
  • Average Period 6s
  • Wind
    18mph, 20mph gusts
  • Sea Temp 41°f
  • 空気 Temp 40°f
  • Sea Pressure 1021.2mb

More Historic Weather Station data

Upgrade to MSW Pro to gain access to the past 30 days of data for over 8000 Wavebouys and Weather Stations around the globe.

Join Pro

Comparision Forecast

View Surf forecast
   
Sun 04/26 2:50pm 6.5ft 8s 6s 18 20 mph 1021.2mb 41f 40f
1:50pm 7.5ft 8s 7s 13 16 mph 1021.9mb 41f 40f
12:50pm 7.5ft 9s 7s 11 13 mph 1022.7mb 41f 39f
11:50am 8ft 10s 7s 9 13 mph 1023.5mb 41f 39f
9:50am 8ft 11s 7s 4 9 mph 1024.8mb 41f 39f
8:50am 8ft 11s 7s 9 11 mph 1024.9mb 41f 39f
7:50am 10ft 10s 7s 9 11 mph 1025.2mb 41f 39f
6:50am 9ft 10s 7s 11 13 mph 1025mb 41f 39f
5:50am 10ft 10s 7s 13 18 mph 1025.3mb 41f 38f
4:50am 10.5ft 10s 7s 16 20 mph 1025mb 41f 38f
3:50am 12ft 11s 7s 20 25 mph 1024.6mb 41f 38f
2:50am 12ft 11s 7s 20 22 mph 1024.8mb 41f 38f
1:50am 13.5ft 9s 7s 22 27 mph 1024.6mb 41f 38f
12:50am 14ft 11s 7s 22 29 mph 1024.6mb 41f 38f
Sat 04/25 11:50pm 14ft 8s 7s 25 29 mph 1023.9mb 41f 38f
10:50pm 13.5ft 11s 7s 25 34 mph 1023.7mb 41f 38f
9:50pm 14ft 10s 7s 27 34 mph 1023.3mb 41f 37f
8:50pm 12.5ft 11s 7s 29 34 mph 1022.9mb 41f 38f
7:50pm 13ft 11s 7s 29 36 mph 1022mb 41f 38f
6:50pm 13ft 9s 7s 27 34 mph 1021.9mb 41f 37f
5:50pm 15.5ft 12s 7s 31 38 mph 1021mb 41f 38f
4:50pm 16ft 12s 7s 34 40 mph 1020.6mb 41f 37f
3:50pm 15ft 11s 7s 29 34 mph 1020.3mb 41f 37f
2:50pm 17.5ft 12s 8s 29 38 mph 1019.4mb 41f 37f
1:50pm 15.5ft 11s 7s 31 40 mph 1018.6mb 41f 37f
12:50pm 16.5ft 11s 8s 34 40 mph 1018mb 41f 38f
11:50am 15ft 12s 8s 29 38 mph 1017.4mb 41f 37f
10:50am 17ft 12s 8s 29 36 mph 1016.9mb 41f 36f
9:50am 17.5ft 12s 8s 29 36 mph 1016.2mb 41f 38f
8:50am 15.5ft 11s 8s 31 40 mph 1015.6mb 41f 38f
7:50am 15.5ft 9s 8s 34 40 mph 1014.5mb 41f 38f
6:50am 14.5ft 11s 7s 34 43 mph 1013.6mb 41f 38f
5:50am 15.5ft 10s 7s 34 43 mph 1012.4mb 41f 38f
4:50am 15ft 10s 7s 34 43 mph 1011.5mb 41f 38f
3:50am 15ft 9s 7s 34 43 mph 1010.4mb 41f 38f
2:50am 16ft 12s 7s 31 38 mph 1009.4mb 41f 39f
1:50am 15ft 7s 7s 34 40 mph 1008.5mb 41f 39f
12:50am 13ft 11s 7s 29 38 mph 1007.7mb 41f 38f
Fri 04/24 11:50pm 12ft 13s 7s 29 36 mph 1006.8mb 41f 38f
10:50pm 11ft 13s 7s 27 31 mph 1006.1mb 41f 40f
9:50pm 12ft 13s 7s 27 36 mph 1005.3mb 41f 39f
8:50pm 11ft 12s 7s 25 31 mph 1004.6mb 41f 38f
7:50pm 12ft 13s 8s 20 25 mph 1003.7mb 41f 38f
6:50pm 11ft 14s 8s 20 25 mph 1002.8mb 41f 38f
5:50pm 12ft 13s 8s 20 25 mph 1001.8mb 41f 39f
4:50pm 13ft 13s 8s 18 22 mph 1001.2mb 41f 37f
3:50pm 14ft 14s 8s 20 25 mph 1000.3mb 41f 38f
2:50pm 14.5ft 14s 8s 20 25 mph 999.7mb 41f 39f
1:50pm 15ft 14s 8s 20 25 mph 999.3mb 41f 39f
12:50pm 16.5ft 13s 8s 20 25 mph 999mb 41f 39f
11:50am 16.5ft 12s 9s 18 22 mph 998.7mb 41f 39f
10:50am 16ft 14s 9s 20 27 mph 998.3mb 41f 40f
9:50am 15.5ft 13s 8s 20 25 mph 998.2mb 41f 40f
8:50am 17.5ft 14s 9s 20 27 mph 997.9mb 41f 40f
7:50am 16.5ft 13s 9s 22 27 mph 997.4mb 41f 40f
6:50am 16.5ft 13s 9s 22 29 mph 996.9mb 41f 40f
5:50am 15.5ft 13s 9s 25 31 mph 996.2mb 41f 41f
4:50am 16.5ft 13s 8s 25 34 mph 995.7mb 41f 41f
3:50am 16.5ft 11s 8s 27 34 mph 995mb 41f 41f
2:50am 18.5ft 12s 8s 27 34 mph 994.5mb 41f 41f
1:50am 20ft 12s 8s 29 38 mph 994.1mb 41f 41f
12:50am 20ft 12s 8s 31 40 mph 993.8mb 41f 40f
Thu 04/23 11:50pm 18ft 11s 8s 31 40 mph 994mb 41f 40f
10:50pm 17.5ft 11s 8s 27 34 mph 994.5mb 41f 38f
9:50pm 15ft 10s 7s 29 34 mph 994.9mb 41f 40f
8:50pm 16ft 11s 8s 29 36 mph 995.2mb 41f 40f
7:50pm 15ft 11s 8s 29 36 mph 995.4mb 41f 39f
6:50pm 15.5ft 12s 8s 27 34 mph 995.8mb 40f 39f
5:50pm 16.5ft 10s 8s 29 38 mph 995.7mb 40f 40f
4:50pm 16.5ft 11s 8s 27 34 mph 995.7mb 40f 39f
3:50pm 15ft 11s 7s 27 36 mph 996.1mb 40f 39f
2:50pm 15.5ft 10s 7s 34 45 mph 996.1mb 40f 40f
1:50pm 15.5ft 10s 7s 29 36 mph 996.9mb 40f 40f
12:50pm 15ft 11s 7s 29 36 mph 997.3mb 40f 40f
11:50am 16ft 11s 7s 31 38 mph 997.7mb 40f 40f
10:50am 17.5ft 11s 7s 29 38 mph 998.3mb 40f 40f
9:50am 17ft 11s 8s 29 38 mph 999mb 41f 40f
8:50am 15.5ft 11s 7s 31 36 mph 999.4mb 41f 40f
7:50am 14ft 10s 7s 29 36 mph 1000mb 41f 40f
6:50am 14ft 11s 8s 27 31 mph 1000.3mb 41f 40f
5:50am 14.5ft 11s 8s 27 34 mph 1000.6mb 41f 40f
4:50am 14ft 10s 8s 25 31 mph 1000.9mb 41f 40f
3:50am 16ft 12s 8s 25 31 mph 1001.2mb 41f 40f
2:50am 14.5ft 11s 8s 25 31 mph 1001.4mb 41f 40f
1:50am 15.5ft 10s 8s 25 31 mph 1001.3mb 41f 41f
12:50am 18ft 11s 8s 25 31 mph 1001.6mb 41f 40f
Wed 04/22 11:50pm 16.5ft 10s 7s 25 29 mph 1001.3mb 41f 41f
10:50pm 16.5ft 10s 8s 27 31 mph 1001.3mb 40f 40f
9:50pm 16.5ft 10s 7s 29 36 mph 1001.6mb 41f 40f
8:50pm 16.5ft 9s 7s 31 40 mph 1002mb 41f 40f
7:50pm 14ft 8s 7s 36 43 mph 1002.3mb 41f 39f
6:50pm 15ft 8s 7s 36 45 mph 1003.2mb 40f 38f
5:50pm 13ft 8s 6s 34 43 mph 1003.9mb 40f 38f
4:50pm 12ft 8s 6s 34 43 mph 1004.6mb 40f 37f